logo
Search for airport 
image banner adimage banner adimage banner ad
image banner ad

CHE3 - Heli-Inter Sept-Iles

Located in Sept-Iles, Canada

ICAO - , IATA -

Data provided by Airmate  

General information

Coordinates: N50°17'20" W66°24'44"
Elevation is 215 feet MSL.
Magnetic variation is -18.5667° East
View others Airports in Quebec

Operational data

Special qualification required
Current time UTC:
Current local time:
Weather at : CYZV - Sept-Iles ( 13 km )
METAR: CYZV 131100Z 04008KT 15SM -SN OVC010 M09/M10 A3010 RMK SC8 /S01/ SLP199
TAF: TAF CYZV 062342Z 0700/0724 35005KT P6SM FEW040 FM071000 02007KT P6SM SCT009 BKN015 BECMG 0715/0717 13012KT FM071800 13009KT P6SM BKN008 OVC012 RMK NXT FCST BY 070600Z
View NOTAMs / SUP AIP / TFR affecting this airport [VIEW]
Communications frequencies: [VIEW]

Runways:

Airport contact information

Address: Sept-Iles Canada

Satellite view of CHE3